createdAt,value
2023-05-12T00:00:03.889Z,137.58
2023-05-12T00:01:03.964Z,137.24
2023-05-12T00:02:04.032Z,136.59
2023-05-12T00:03:04.279Z,137.11
2023-05-12T00:04:04.302Z,136.48
2023-05-12T00:05:04.217Z,136.32
2023-05-12T00:06:04.276Z,137.09
2023-05-12T00:07:04.333Z,138.15
2023-05-12T00:08:04.390Z,136.99
2023-05-12T00:09:04.461Z,138.13
2023-05-12T00:10:04.511Z,136.06
2023-05-12T00:11:04.614Z,134.71
2023-05-12T00:12:04.623Z,135.95
2023-05-12T00:13:04.693Z,136.89
2023-05-12T00:14:04.759Z,135.66
2023-05-12T00:15:04.823Z,136.34
2023-05-12T00:16:04.910Z,134.91
2023-05-12T00:17:04.944Z,136.28
2023-05-12T00:18:05.056Z,135.47
2023-05-12T00:19:05.143Z,135.41
2023-05-12T00:20:05.146Z,135.12
2023-05-12T00:21:05.202Z,134.56
2023-05-12T00:22:05.260Z,134.54
2023-05-12T00:23:05.330Z,132.67
2023-05-12T00:24:05.407Z,135.88
2023-05-12T00:25:05.459Z,136.84
2023-05-12T00:26:05.526Z,135.77
2023-05-12T00:27:05.589Z,135.08
2023-05-12T00:28:05.652Z,134.75
2023-05-12T00:29:05.723Z,133.46
2023-05-12T00:30:05.781Z,134.45
2023-05-12T00:31:05.884Z,134.73
2023-05-12T00:32:05.962Z,135.09
2023-05-12T00:33:06.030Z,133.92
2023-05-12T00:34:06.146Z,133.16
2023-05-12T00:35:06.102Z,132.77
2023-05-12T00:36:06.169Z,133.56
2023-05-12T00:37:06.224Z,133.87
2023-05-12T00:38:06.288Z,132.78
2023-05-12T00:39:06.410Z,133.83
2023-05-12T00:40:06.420Z,133.23
2023-05-12T00:41:06.485Z,133.81
2023-05-12T00:42:06.529Z,130.80
2023-05-12T00:43:06.596Z,132.25
2023-05-12T00:44:06.677Z,132.76
2023-05-12T00:45:06.731Z,133.41
2023-05-12T00:46:06.862Z,133.32
2023-05-12T00:47:06.854Z,131.68
2023-05-12T00:48:06.969Z,133.07
2023-05-12T00:49:06.978Z,132.23
2023-05-12T00:50:07.043Z,132.63
2023-05-12T00:51:07.104Z,131.89
2023-05-12T00:52:07.166Z,131.88
2023-05-12T00:53:07.234Z,132.19
2023-05-12T00:54:07.293Z,131.63
2023-05-12T00:55:07.352Z,132.72
2023-05-12T00:56:07.421Z,131.40
2023-05-12T00:57:07.488Z,131.47
2023-05-12T00:58:07.561Z,130.10
2023-05-12T00:59:07.635Z,130.41
2023-05-12T01:00:07.715Z,131.60
2023-05-12T01:01:07.784Z,131.31
2023-05-12T01:02:07.851Z,130.63
2023-05-12T01:03:08.036Z,130.06
2023-05-12T01:04:07.942Z,129.95
2023-05-12T01:05:08.026Z,130.79
2023-05-12T01:06:08.121Z,128.87
2023-05-12T01:07:08.132Z,129.51
2023-05-12T01:08:08.197Z,130.58
2023-05-12T01:09:08.256Z,129.52
2023-05-12T01:10:08.320Z,130.30
2023-05-12T01:11:08.386Z,129.82
2023-05-12T01:12:08.445Z,132.02
2023-05-12T01:13:08.502Z,130.15
2023-05-12T01:14:08.569Z,128.19
2023-05-12T01:15:08.632Z,129.22
2023-05-12T01:16:08.709Z,128.91
2023-05-12T01:17:08.790Z,129.10
2023-05-12T01:18:08.898Z,128.82
2023-05-12T01:19:08.899Z,129.36
2023-05-12T01:20:08.944Z,129.29
2023-05-12T01:21:09.021Z,131.09
2023-05-12T01:22:09.084Z,128.00
2023-05-12T01:23:09.142Z,129.51
2023-05-12T01:24:09.257Z,130.46
2023-05-12T01:25:09.268Z,127.94
2023-05-12T01:26:09.340Z,128.69
2023-05-12T01:27:09.433Z,127.82
2023-05-12T01:28:09.445Z,127.58
2023-05-12T01:29:09.518Z,127.12
2023-05-12T01:30:09.570Z,127.91
2023-05-12T01:31:09.692Z,129.17
2023-05-12T01:32:09.695Z,127.03
2023-05-12T01:33:09.762Z,128.19
2023-05-12T01:34:09.816Z,126.34
2023-05-12T01:35:09.879Z,127.76
2023-05-12T01:36:09.952Z,129.63
2023-05-12T01:37:09.998Z,126.73
2023-05-12T01:38:10.072Z,128.04
2023-05-12T01:39:10.122Z,126.68
2023-05-12T01:40:10.186Z,126.26
2023-05-12T01:41:10.247Z,127.64
2023-05-12T01:42:10.308Z,127.82
2023-05-12T01:43:10.375Z,127.47
2023-05-12T01:44:10.432Z,126.42
2023-05-12T01:45:10.496Z,125.24
2023-05-12T01:46:10.592Z,126.73
2023-05-12T01:47:10.618Z,126.43
2023-05-12T01:48:10.678Z,123.34
2023-05-12T01:49:10.740Z,125.57
2023-05-12T01:50:10.829Z,125.63
2023-05-12T01:51:10.868Z,127.28
2023-05-12T01:52:10.927Z,127.22
2023-05-12T01:53:11.012Z,126.83
2023-05-12T01:54:11.083Z,124.38
2023-05-12T01:55:11.141Z,124.97
2023-05-12T01:56:11.196Z,124.44
2023-05-12T01:57:11.262Z,124.56
2023-05-12T01:58:11.330Z,122.56
2023-05-12T01:59:11.458Z,125.43
2023-05-12T02:00:11.490Z,124.21
2023-05-12T02:01:11.547Z,123.30
2023-05-12T02:02:11.675Z,124.41
2023-05-12T02:03:11.861Z,122.01
2023-05-12T02:04:11.794Z,123.83
2023-05-12T02:05:11.827Z,125.43
2023-05-12T02:06:11.923Z,124.13
2023-05-12T02:07:11.984Z,123.52
2023-05-12T02:08:12.057Z,123.75
2023-05-12T02:09:12.126Z,125.13
2023-05-12T02:10:12.203Z,121.92
2023-05-12T02:11:12.260Z,125.33
2023-05-12T02:12:12.356Z,121.59
2023-05-12T02:13:12.396Z,121.08
2023-05-12T02:14:12.486Z,122.21
2023-05-12T02:15:12.548Z,124.25
2023-05-12T02:16:12.641Z,121.51
2023-05-12T02:17:12.686Z,121.96
2023-05-12T02:18:12.750Z,123.72
2023-05-12T02:19:12.820Z,123.24
2023-05-12T02:20:12.908Z,123.35
2023-05-12T02:21:12.973Z,123.38
2023-05-12T02:22:13.033Z,120.89
2023-05-12T02:23:13.097Z,123.10
2023-05-12T02:24:14.811Z,121.40
2023-05-12T02:25:13.237Z,120.60
2023-05-12T02:26:13.316Z,122.39
2023-05-12T02:27:13.374Z,122.50
2023-05-12T02:28:13.439Z,120.30
2023-05-12T02:29:13.505Z,120.44
2023-05-12T02:30:13.575Z,121.82
2023-05-12T02:31:13.634Z,119.42
2023-05-12T02:32:13.781Z,122.38
2023-05-12T02:33:13.766Z,121.24
2023-05-12T02:34:13.828Z,120.70
2023-05-12T02:35:13.894Z,120.04
2023-05-12T02:36:13.967Z,117.80
2023-05-12T02:37:14.043Z,120.66
2023-05-12T02:38:14.098Z,120.30
2023-05-12T02:39:14.152Z,120.12
2023-05-12T02:40:14.215Z,121.20
2023-05-12T02:41:14.269Z,120.68
2023-05-12T02:42:14.349Z,118.67
2023-05-12T02:43:14.405Z,121.19
2023-05-12T02:44:14.470Z,119.83
2023-05-12T02:45:14.538Z,120.91
2023-05-12T02:46:14.658Z,119.90
2023-05-12T02:47:14.661Z,119.24
2023-05-12T02:48:14.728Z,118.27
2023-05-12T02:49:14.803Z,118.40
2023-05-12T02:50:14.877Z,120.29
2023-05-12T02:51:14.928Z,119.33
2023-05-12T02:52:14.988Z,117.59
2023-05-12T02:53:15.050Z,118.89
2023-05-12T02:54:15.128Z,118.96
2023-05-12T02:55:15.174Z,118.63
2023-05-12T02:56:15.258Z,119.83
2023-05-12T02:57:15.306Z,116.39
2023-05-12T02:58:15.391Z,116.92
2023-05-12T02:59:15.517Z,116.77
2023-05-12T03:00:15.500Z,118.98
2023-05-12T03:01:15.586Z,118.29
2023-05-12T03:02:15.668Z,118.47
2023-05-12T03:03:15.839Z,116.93
2023-05-12T03:04:15.773Z,117.05
2023-05-12T03:05:15.829Z,116.84
2023-05-12T03:06:15.902Z,116.66
2023-05-12T03:07:15.967Z,116.88
2023-05-12T03:08:16.021Z,116.17
2023-05-12T03:09:16.084Z,118.45
2023-05-12T03:10:16.149Z,114.20
2023-05-12T03:11:16.220Z,117.79
2023-05-12T03:12:16.277Z,115.00
2023-05-12T03:13:16.330Z,116.00
2023-05-12T03:14:16.422Z,114.72
2023-05-12T03:15:16.461Z,115.50
2023-05-12T03:16:18.838Z,115.37
2023-05-12T03:17:16.619Z,116.64
2023-05-12T03:18:16.551Z,116.54
2023-05-12T03:19:16.566Z,117.71
2023-05-12T03:20:16.595Z,116.29
2023-05-12T03:21:16.595Z,116.63
2023-05-12T03:22:16.593Z,116.90
2023-05-12T03:23:16.617Z,112.87
2023-05-12T03:24:16.606Z,114.43
2023-05-12T03:25:16.634Z,115.19
2023-05-12T03:26:16.640Z,114.60
2023-05-12T03:27:16.665Z,113.50
2023-05-12T03:28:16.665Z,113.00
2023-05-12T03:29:16.679Z,115.10
2023-05-12T03:30:16.729Z,113.71
2023-05-12T03:31:16.730Z,115.16
2023-05-12T03:32:16.727Z,114.48
2023-05-12T03:33:16.757Z,113.56
2023-05-12T03:34:16.762Z,114.23
2023-05-12T03:35:16.779Z,112.51
2023-05-12T03:36:16.801Z,113.82
2023-05-12T03:37:16.876Z,115.05
2023-05-12T03:38:16.829Z,113.31
2023-05-12T03:39:16.842Z,111.77
2023-05-12T03:40:16.903Z,113.39
2023-05-12T03:41:16.880Z,112.98
2023-05-12T03:42:16.893Z,112.50
2023-05-12T03:43:16.910Z,113.69
2023-05-12T03:44:16.925Z,112.60
2023-05-12T03:45:16.947Z,112.53
2023-05-12T03:46:17.049Z,111.69
2023-05-12T03:47:17.047Z,114.38
2023-05-12T03:48:17.070Z,112.71
2023-05-12T03:49:17.020Z,110.41
2023-05-12T03:50:17.094Z,111.84
2023-05-12T03:51:17.066Z,111.58
2023-05-12T03:52:17.063Z,111.07
2023-05-12T03:53:17.072Z,112.28
2023-05-12T03:54:17.103Z,110.46
2023-05-12T03:55:17.108Z,109.58
2023-05-12T03:56:17.119Z,111.20
2023-05-12T03:57:17.144Z,110.85
2023-05-12T03:58:17.154Z,110.55
2023-05-12T03:59:17.177Z,112.34
2023-05-12T04:00:17.278Z,111.45
2023-05-12T04:01:17.294Z,111.49
2023-05-12T04:02:17.262Z,109.58
2023-05-12T04:03:17.360Z,108.82
2023-05-12T04:04:17.327Z,110.77
2023-05-12T04:05:17.373Z,111.28
2023-05-12T04:06:17.434Z,110.70
2023-05-12T04:07:17.493Z,108.28
2023-05-12T04:08:17.554Z,110.43
2023-05-12T04:09:17.627Z,113.44
2023-05-12T04:10:17.735Z,108.48
2023-05-12T04:11:17.750Z,108.19
2023-05-12T04:12:17.831Z,109.07
2023-05-12T04:13:17.878Z,109.57
2023-05-12T04:14:17.942Z,110.52
2023-05-12T04:15:18.005Z,111.30
2023-05-12T04:16:18.108Z,109.43
2023-05-12T04:17:18.152Z,108.42
2023-05-12T04:18:18.205Z,108.46
2023-05-12T04:19:18.264Z,109.60
2023-05-12T04:20:18.395Z,110.28
2023-05-12T04:21:18.390Z,108.17
2023-05-12T04:22:18.464Z,110.10
2023-05-12T04:23:18.527Z,109.84
2023-05-12T04:24:18.595Z,108.42
2023-05-12T04:25:18.663Z,109.22
2023-05-12T04:26:18.721Z,109.47
2023-05-12T04:27:18.806Z,108.45
2023-05-12T04:28:18.862Z,110.12
2023-05-12T04:29:18.929Z,107.27
2023-05-12T04:30:19.189Z,108.94
2023-05-12T04:31:19.100Z,110.42
2023-05-12T04:32:19.141Z,106.62
2023-05-12T04:33:19.206Z,107.74
2023-05-12T04:34:19.269Z,108.77
2023-05-12T04:35:19.341Z,108.43
2023-05-12T04:36:19.406Z,106.65
2023-05-12T04:37:19.476Z,105.31
2023-05-12T04:38:19.540Z,110.98
2023-05-12T04:39:19.614Z,108.05
2023-05-12T04:40:19.871Z,107.89
2023-05-12T04:41:19.746Z,105.73
2023-05-12T04:42:19.821Z,108.76
2023-05-12T04:44:19.901Z,109.11
2023-05-12T04:45:20.291Z,108.05
2023-05-12T04:46:19.991Z,111.74
2023-05-12T04:47:19.967Z,110.16
2023-05-12T04:48:19.951Z,106.53
2023-05-12T04:49:19.965Z,109.17
2023-05-12T04:50:19.982Z,107.37
2023-05-12T04:51:20.032Z,107.80
2023-05-12T04:52:20.027Z,107.03
2023-05-12T04:53:20.050Z,106.69
2023-05-12T04:54:20.071Z,106.44
2023-05-12T04:55:20.226Z,104.53
2023-05-12T04:56:20.103Z,107.14
2023-05-12T04:57:20.124Z,105.43
2023-05-12T04:58:20.145Z,105.94
2023-05-12T04:59:20.155Z,106.26
2023-05-12T05:00:20.185Z,107.41
2023-05-12T05:01:20.197Z,107.72
2023-05-12T05:02:20.212Z,105.11
2023-05-12T05:03:20.312Z,106.51
2023-05-12T05:04:20.245Z,105.45
2023-05-12T05:05:20.408Z,107.42
2023-05-12T05:06:20.345Z,106.38
2023-05-12T05:07:20.325Z,105.09
2023-05-12T05:08:20.344Z,104.43
2023-05-12T05:09:20.368Z,104.90
2023-05-12T05:10:20.399Z,104.12
2023-05-12T05:11:20.420Z,104.43
2023-05-12T05:12:20.437Z,104.31
2023-05-12T05:13:20.464Z,102.84
2023-05-12T05:14:20.487Z,105.58
2023-05-12T05:15:20.743Z,105.30
2023-05-12T05:16:20.594Z,101.52
2023-05-12T05:17:20.649Z,102.66
2023-05-12T05:18:22.355Z,103.32
2023-05-12T05:19:31.433Z,107.24
2023-05-12T05:20:25.583Z,107.56
2023-05-12T05:21:21.585Z,107.64
2023-05-12T05:22:20.606Z,99.03
2023-05-12T05:23:20.620Z,48.16
2023-05-12T05:24:20.644Z,31.38
2023-05-12T05:25:20.822Z,15.40
2023-05-12T05:26:20.694Z,22.32
2023-05-12T05:27:20.739Z,32.74
2023-05-12T05:28:20.751Z,38.14
2023-05-12T05:29:20.775Z,44.02
2023-05-12T05:30:20.837Z,49.82
2023-05-12T05:31:20.912Z,63.33
2023-05-12T05:32:21.054Z,72.87
2023-05-12T05:33:20.876Z,82.10
2023-05-12T05:34:20.989Z,87.08
2023-05-12T05:35:21.130Z,100.05
2023-05-12T05:36:20.926Z,111.54
2023-05-12T05:37:20.944Z,117.26
2023-05-12T05:38:20.951Z,126.63
2023-05-12T05:39:20.968Z,134.19
2023-05-12T05:40:21.001Z,137.41
2023-05-12T05:41:20.980Z,143.99
2023-05-12T05:42:21.008Z,150.81
2023-05-12T05:43:21.008Z,156.89
2023-05-12T05:44:21.034Z,163.97
2023-05-12T05:45:21.184Z,169.88
2023-05-12T05:46:21.120Z,175.45
2023-05-12T05:47:21.067Z,181.27
2023-05-12T05:48:21.110Z,187.85
2023-05-12T05:49:21.084Z,194.01
2023-05-12T05:50:21.091Z,198.55
2023-05-12T05:51:21.165Z,206.64
2023-05-12T05:52:21.146Z,210.70
2023-05-12T05:53:21.199Z,218.01
2023-05-12T05:54:21.233Z,221.84
2023-05-12T05:55:21.538Z,227.12
2023-05-12T05:56:21.332Z,176.47
2023-05-12T05:57:21.415Z,129.25
2023-05-12T05:58:21.455Z,105.55
2023-05-12T05:59:21.616Z,121.81
2023-05-12T06:00:21.569Z,130.52
2023-05-12T06:01:21.610Z,129.59
2023-05-12T06:02:21.710Z,135.08
2023-05-12T06:03:21.720Z,139.90
2023-05-12T06:04:21.853Z,145.04
2023-05-12T06:05:21.990Z,150.33
2023-05-12T06:06:21.904Z,155.64
2023-05-12T06:07:22.960Z,158.55
2023-05-12T06:08:22.046Z,163.22
2023-05-12T06:09:22.140Z,168.94
2023-05-12T06:10:22.480Z,169.63
2023-05-12T06:11:22.255Z,174.38
2023-05-12T06:12:22.328Z,177.44
2023-05-12T06:13:22.377Z,179.55
2023-05-12T06:14:22.430Z,182.25
2023-05-12T06:15:23.017Z,184.93
2023-05-12T06:16:22.638Z,189.39
2023-05-12T06:17:22.660Z,191.18
2023-05-12T06:18:22.714Z,194.75
2023-05-12T06:19:22.702Z,199.87
2023-05-12T06:20:22.757Z,201.67
2023-05-12T06:21:22.800Z,208.33
2023-05-12T06:22:22.830Z,213.59
2023-05-12T06:23:22.876Z,219.52
2023-05-12T06:24:22.922Z,209.53
2023-05-12T06:25:23.116Z,174.57
2023-05-12T06:26:23.102Z,163.55
2023-05-12T06:27:23.174Z,188.57
2023-05-12T06:28:23.232Z,212.06
2023-05-12T06:29:23.309Z,222.57
2023-05-12T06:30:23.375Z,229.48
2023-05-12T06:31:23.510Z,231.40
2023-05-12T06:32:23.571Z,230.77
2023-05-12T06:33:23.551Z,232.11
2023-05-12T06:34:24.567Z,232.34
2023-05-12T06:35:24.393Z,233.00
2023-05-12T06:36:23.596Z,234.98
2023-05-12T06:37:23.627Z,238.67
2023-05-12T06:38:23.627Z,244.06
2023-05-12T06:39:23.625Z,245.66
2023-05-12T06:40:23.653Z,246.02
2023-05-12T06:41:23.646Z,247.09
2023-05-12T06:42:23.776Z,248.01
2023-05-12T06:43:23.641Z,249.53
2023-05-12T06:44:23.637Z,250.13
2023-05-12T06:45:23.834Z,249.61
2023-05-12T06:46:23.755Z,248.08
2023-05-12T06:47:23.644Z,247.23
2023-05-12T06:48:23.659Z,248.07
2023-05-12T06:49:23.660Z,249.56
2023-05-12T06:50:23.660Z,249.92
2023-05-12T06:51:23.679Z,248.37
2023-05-12T06:52:23.673Z,248.84
2023-05-12T06:53:25.480Z,246.45
2023-05-12T06:54:23.714Z,249.47
2023-05-12T06:55:23.910Z,248.97
2023-05-12T06:56:23.742Z,247.15
2023-05-12T06:57:23.752Z,248.58
2023-05-12T06:58:23.781Z,247.66
2023-05-12T06:59:23.779Z,247.27
2023-05-12T07:00:23.786Z,247.94
2023-05-12T07:01:23.822Z,248.34
2023-05-12T07:02:23.835Z,249.11
2023-05-12T07:03:23.884Z,248.03
2023-05-12T07:04:25.583Z,250.00
2023-05-12T07:05:24.385Z,246.19
2023-05-12T07:06:24.114Z,246.12
2023-05-12T07:07:24.195Z,248.88
2023-05-12T07:08:24.239Z,248.35
2023-05-12T07:09:24.347Z,248.14
2023-05-12T07:10:24.350Z,249.02
2023-05-12T07:11:24.413Z,246.46
2023-05-12T07:12:24.444Z,249.88
2023-05-12T07:13:24.499Z,247.73
2023-05-12T07:14:24.607Z,243.09
2023-05-12T07:15:24.596Z,243.09
2023-05-12T07:16:25.533Z,243.89
2023-05-12T07:17:24.684Z,233.05
2023-05-12T07:18:24.753Z,238.36
2023-05-12T07:19:24.761Z,232.57
2023-05-12T07:20:24.799Z,238.64
2023-05-12T07:21:24.835Z,227.38
2023-05-12T07:22:24.881Z,229.20
2023-05-12T07:23:26.403Z,229.42
2023-05-12T07:24:26.405Z,236.04
2023-05-12T07:25:25.110Z,240.27
2023-05-12T07:26:25.073Z,244.28
2023-05-12T07:27:25.128Z,245.33
2023-05-12T07:28:25.195Z,249.13
2023-05-12T07:29:25.261Z,250.00
2023-05-12T07:30:25.356Z,250.00
2023-05-12T07:31:25.414Z,250.00
2023-05-12T07:32:25.464Z,247.91
2023-05-12T07:33:25.995Z,249.71
2023-05-12T07:34:25.531Z,249.28
2023-05-12T07:35:25.586Z,249.02
2023-05-12T07:36:25.655Z,249.72
2023-05-12T07:37:25.710Z,248.45
2023-05-12T07:38:25.807Z,250.00
2023-05-12T07:39:25.829Z,249.24
2023-05-12T07:40:25.976Z,250.00
2023-05-12T07:41:25.950Z,248.77
2023-05-12T07:42:26.916Z,250.00
2023-05-12T07:43:26.100Z,249.39
2023-05-12T07:44:26.155Z,249.60
2023-05-12T07:45:26.216Z,248.96
2023-05-12T07:46:26.401Z,248.89
2023-05-12T07:47:26.396Z,249.34
2023-05-12T07:48:26.405Z,249.67
2023-05-12T07:49:26.455Z,250.04
2023-05-12T07:50:26.510Z,248.40
2023-05-12T07:51:26.599Z,248.55
2023-05-12T07:52:26.632Z,249.16
2023-05-12T07:53:26.671Z,248.79
2023-05-12T07:54:26.709Z,250.00
2023-05-12T07:55:26.776Z,249.80
2023-05-12T07:56:27.512Z,248.86
2023-05-12T07:57:27.467Z,249.62
2023-05-12T07:58:27.952Z,249.80
2023-05-12T07:59:27.018Z,250.48
2023-05-12T08:00:27.045Z,251.66
2023-05-12T08:01:27.232Z,254.92
2023-05-12T08:02:27.290Z,257.81
2023-05-12T08:03:27.341Z,249.16
2023-05-12T08:04:27.242Z,248.80
2023-05-12T08:05:27.250Z,249.43
2023-05-12T08:06:27.297Z,249.91
2023-05-12T08:07:27.350Z,248.82
2023-05-12T08:08:27.412Z,249.63
2023-05-12T08:09:27.467Z,250.12
2023-05-12T08:10:27.543Z,248.57
2023-05-12T08:11:27.611Z,249.82
2023-05-12T08:12:27.658Z,249.03
2023-05-12T08:13:27.709Z,248.78
2023-05-12T08:14:27.771Z,249.52
2023-05-12T08:15:27.836Z,249.72
2023-05-12T08:16:27.917Z,245.00
2023-05-12T08:17:29.413Z,249.47
2023-05-12T08:18:28.567Z,246.31
2023-05-12T08:19:28.060Z,242.45
2023-05-12T08:20:28.097Z,243.92
2023-05-12T08:21:28.170Z,244.10
2023-05-12T08:22:28.243Z,243.77
2023-05-12T08:23:28.297Z,242.96
2023-05-12T08:24:28.327Z,240.87
2023-05-12T08:25:28.395Z,239.62
2023-05-12T08:26:28.720Z,238.03
2023-05-12T08:27:28.556Z,233.62
2023-05-12T08:28:28.586Z,231.93
2023-05-12T08:29:29.581Z,231.95
2023-05-12T08:30:28.573Z,227.36
2023-05-12T08:31:28.605Z,222.14
2023-05-12T08:32:28.607Z,215.51
2023-05-12T08:33:29.941Z,209.81
2023-05-12T08:34:28.577Z,204.73
2023-05-12T08:35:28.563Z,199.34
2023-05-12T08:36:28.563Z,195.38
2023-05-12T08:37:28.563Z,190.92
2023-05-12T08:38:28.572Z,185.28
2023-05-12T08:39:29.511Z,182.12
2023-05-12T08:40:28.567Z,174.11
2023-05-12T08:41:28.611Z,170.63
2023-05-12T08:42:28.565Z,167.75
2023-05-12T08:43:28.576Z,162.82
2023-05-12T08:44:28.611Z,160.26
2023-05-12T08:45:28.569Z,156.05
2023-05-12T08:46:28.594Z,154.42
2023-05-12T08:47:28.649Z,150.75
2023-05-12T08:48:28.624Z,150.39
2023-05-12T08:49:29.514Z,144.04
2023-05-12T08:50:29.435Z,140.71
2023-05-12T08:51:28.634Z,137.53
2023-05-12T08:52:28.629Z,134.76
2023-05-12T08:53:28.656Z,130.78
2023-05-12T08:54:28.664Z,125.80
2023-05-12T08:55:32.757Z,122.14
2023-05-12T08:57:29.684Z,122.18
2023-05-12T08:58:40.315Z,121.11
2023-05-12T08:59:29.658Z,121.50
2023-05-12T09:00:28.715Z,117.36
2023-05-12T09:01:28.708Z,115.56
2023-05-12T09:02:34.996Z,115.66
2023-05-12T09:03:30.557Z,118.22
2023-05-12T09:04:28.689Z,113.34
2023-05-12T09:05:28.649Z,111.62
2023-05-12T09:06:28.844Z,109.47
2023-05-12T09:07:28.689Z,108.22
2023-05-12T09:08:28.669Z,106.28
2023-05-12T09:09:28.644Z,105.20
2023-05-12T09:11:28.696Z,102.22
2023-05-12T09:12:28.673Z,101.55
2023-05-12T09:13:28.684Z,99.70
2023-05-12T09:14:28.684Z,98.42
2023-05-12T09:15:28.692Z,97.16
2023-05-12T09:16:28.758Z,96.71
2023-05-12T09:17:28.709Z,89.48
2023-05-12T09:18:28.723Z,89.23
2023-05-12T09:19:28.689Z,89.56
2023-05-12T09:20:31.953Z,87.28
2023-05-12T09:21:28.708Z,87.44
2023-05-12T09:22:28.694Z,87.60
2023-05-12T09:23:28.775Z,87.32
2023-05-12T09:24:29.529Z,87.44
2023-05-12T09:25:28.664Z,86.38
2023-05-12T09:26:28.711Z,85.25
2023-05-12T09:27:28.671Z,85.79
2023-05-12T09:28:28.656Z,82.83
2023-05-12T09:29:32.506Z,83.76
2023-05-12T09:30:29.638Z,83.86
2023-05-12T09:31:28.710Z,84.06
2023-05-12T09:32:28.645Z,83.73
2023-05-12T09:33:28.641Z,83.37
2023-05-12T09:34:28.646Z,83.96
2023-05-12T09:35:28.647Z,83.16
2023-05-12T09:36:28.633Z,81.98
2023-05-12T09:37:28.643Z,83.18
2023-05-12T09:38:28.641Z,82.05
2023-05-12T09:39:28.654Z,82.16
2023-05-12T09:40:29.578Z,82.52
2023-05-12T09:41:28.646Z,82.78
2023-05-12T09:42:28.668Z,82.16
2023-05-12T09:43:28.723Z,82.56
2023-05-12T09:44:28.724Z,82.63
2023-05-12T09:45:28.740Z,83.73
2023-05-12T09:46:28.905Z,83.34
2023-05-12T09:47:28.804Z,83.97
2023-05-12T09:48:29.559Z,83.79
2023-05-12T09:49:28.869Z,85.61
2023-05-12T09:50:32.499Z,86.16
2023-05-12T09:51:29.916Z,86.36
2023-05-12T09:52:29.600Z,87.01
2023-05-12T09:53:28.905Z,88.11
2023-05-12T09:54:28.905Z,90.11
2023-05-12T09:55:28.902Z,93.75
2023-05-12T09:56:28.914Z,94.63
2023-05-12T09:57:28.906Z,94.75
2023-05-12T09:58:28.918Z,94.55
2023-05-12T09:59:28.903Z,94.46
2023-05-12T10:00:43.509Z,94.75
2023-05-12T10:01:29.915Z,94.89
2023-05-12T10:02:28.922Z,94.95
2023-05-12T10:03:29.919Z,94.92
2023-05-12T10:04:28.963Z,95.24
2023-05-12T10:05:28.895Z,95.21
2023-05-12T10:06:28.890Z,96.25
2023-05-12T10:07:28.951Z,94.81
2023-05-12T10:08:28.887Z,94.90
2023-05-12T10:09:28.887Z,94.83
2023-05-12T10:10:28.927Z,95.44
2023-05-12T10:11:28.888Z,95.79
2023-05-12T10:12:28.880Z,94.41
2023-05-12T10:13:28.955Z,94.98
2023-05-12T10:14:28.970Z,93.85
2023-05-12T10:15:28.962Z,59.61
2023-05-12T10:16:29.027Z,23.23
2023-05-12T10:17:30.618Z,9.22
2023-05-12T10:18:29.023Z,1.97
2023-05-12T10:19:29.020Z,1.23
2023-05-12T10:20:29.025Z,8.86
2023-05-12T10:21:29.052Z,12.72
2023-05-12T10:22:29.067Z,13.39
2023-05-12T10:23:29.104Z,14.84
2023-05-12T10:24:29.109Z,17.99
2023-05-12T10:25:29.136Z,23.56
2023-05-12T10:26:29.155Z,23.69
2023-05-12T10:27:29.200Z,22.38
2023-05-12T10:28:29.207Z,25.00
2023-05-12T10:29:29.249Z,25.55
2023-05-12T10:30:29.295Z,27.18
2023-05-12T10:31:29.393Z,23.72
2023-05-12T10:32:29.432Z,25.25
2023-05-12T10:33:29.406Z,25.00
2023-05-12T10:34:29.607Z,25.28
2023-05-12T10:35:29.484Z,25.43
2023-05-12T10:36:29.564Z,25.00
2023-05-12T10:37:29.600Z,25.76
2023-05-12T10:38:29.630Z,25.00
2023-05-12T10:39:29.671Z,25.15
2023-05-12T10:40:29.724Z,25.52
2023-05-12T10:41:29.767Z,26.06
2023-05-12T10:42:29.894Z,24.90
2023-05-12T10:43:29.885Z,27.78
2023-05-12T10:44:29.913Z,24.76
2023-05-12T10:45:29.947Z,25.12
2023-05-12T10:46:30.376Z,25.46
2023-05-12T10:47:30.062Z,26.04
2023-05-12T10:48:30.100Z,25.36
2023-05-12T10:49:30.140Z,25.37
2023-05-12T10:50:30.176Z,26.74
2023-05-12T10:51:30.236Z,25.12
2023-05-12T10:52:30.268Z,25.00
2023-05-12T10:53:41.376Z,24.99
2023-05-12T10:54:31.336Z,25.00
2023-05-12T10:55:30.428Z,25.05
2023-05-12T10:56:30.715Z,23.17
2023-05-12T10:57:31.320Z,21.14
2023-05-12T10:58:30.778Z,19.19
2023-05-12T10:59:30.771Z,23.60
2023-05-12T11:00:30.924Z,24.84
2023-05-12T11:01:30.806Z,25.00
2023-05-12T11:02:30.773Z,25.66
2023-05-12T11:03:30.700Z,25.00
2023-05-12T11:04:30.512Z,26.73
2023-05-12T11:05:31.566Z,33.01
2023-05-12T11:06:30.749Z,40.98
2023-05-12T11:07:31.016Z,47.12
2023-05-12T11:08:30.727Z,53.02
2023-05-12T11:09:31.211Z,57.63
2023-05-12T11:10:31.230Z,61.82
2023-05-12T11:11:30.575Z,65.46
2023-05-12T11:12:30.475Z,67.82
2023-05-12T11:13:30.510Z,68.61
2023-05-12T11:14:30.539Z,72.22
2023-05-12T11:15:30.540Z,73.21
2023-05-12T11:16:30.643Z,74.95
2023-05-12T11:17:30.684Z,74.99
2023-05-12T11:18:30.643Z,77.64
2023-05-12T11:19:30.631Z,78.77
2023-05-12T11:20:31.245Z,80.70
2023-05-12T11:21:30.664Z,81.34
2023-05-12T11:22:30.702Z,82.78
2023-05-12T11:23:30.690Z,85.58
2023-05-12T11:24:30.708Z,87.33
2023-05-12T11:25:30.746Z,88.54
2023-05-12T11:26:30.733Z,89.85
2023-05-12T11:27:30.750Z,90.78
2023-05-12T11:28:30.767Z,90.98
2023-05-12T11:29:30.775Z,92.09
2023-05-12T11:30:30.786Z,92.63
2023-05-12T11:31:30.812Z,94.39
2023-05-12T11:32:30.864Z,95.84
2023-05-12T11:33:30.805Z,96.28
2023-05-12T11:34:30.822Z,97.20
2023-05-12T11:35:30.848Z,98.43
2023-05-12T11:36:30.863Z,98.36
2023-05-12T11:37:30.858Z,99.98
2023-05-12T11:38:30.878Z,100.24
2023-05-12T11:39:30.901Z,101.73
2023-05-12T11:40:30.916Z,102.16
2023-05-12T11:41:30.930Z,103.53
2023-05-12T11:42:30.943Z,102.93
2023-05-12T11:43:30.966Z,103.56
2023-05-12T11:44:30.984Z,103.76
2023-05-12T11:45:30.992Z,104.14
2023-05-12T11:46:31.067Z,104.18
2023-05-12T11:47:31.039Z,103.77
2023-05-12T11:48:31.028Z,104.76
2023-05-12T11:49:31.035Z,104.65
2023-05-12T11:50:31.054Z,105.59
2023-05-12T11:51:31.064Z,107.27
2023-05-12T11:52:31.078Z,110.95
2023-05-12T11:53:31.112Z,113.20
2023-05-12T11:54:31.129Z,116.54
2023-05-12T11:55:31.153Z,116.90
2023-05-12T11:56:31.158Z,120.90
2023-05-12T11:57:31.180Z,120.46
2023-05-12T11:58:31.198Z,122.38
2023-05-12T11:59:31.227Z,127.93
2023-05-12T12:00:31.249Z,132.19
2023-05-12T12:01:31.275Z,133.67
2023-05-12T12:02:31.475Z,132.89
2023-05-12T12:03:31.385Z,132.85
2023-05-12T12:04:32.123Z,132.53
2023-05-12T12:05:31.368Z,132.06
2023-05-12T12:06:31.400Z,131.95
2023-05-12T12:07:31.646Z,132.28
2023-05-12T12:08:31.420Z,132.07
2023-05-12T12:09:31.448Z,132.53
2023-05-12T12:10:31.470Z,132.40
2023-05-12T12:11:31.482Z,132.72
2023-05-12T12:12:31.502Z,133.18
2023-05-12T12:13:31.524Z,133.69
2023-05-12T12:14:31.547Z,133.59
2023-05-12T12:15:31.560Z,134.21
2023-05-12T12:16:31.680Z,134.70
2023-05-12T12:17:31.639Z,134.69
2023-05-12T12:18:31.684Z,135.57
2023-05-12T12:19:31.656Z,136.01
2023-05-12T12:20:31.666Z,136.49
2023-05-12T12:21:31.691Z,136.08
2023-05-12T12:22:31.706Z,136.86
2023-05-12T12:23:37.809Z,136.51
2023-05-12T12:24:32.732Z,136.56
2023-05-12T12:25:31.720Z,136.79
2023-05-12T12:26:31.712Z,137.01
2023-05-12T12:27:31.714Z,136.61
2023-05-12T12:28:31.701Z,137.54
2023-05-12T12:29:31.715Z,137.44
2023-05-12T12:30:31.695Z,137.91
2023-05-12T12:31:31.746Z,137.30
2023-05-12T12:32:31.766Z,138.18
2023-05-12T12:33:31.781Z,137.79
2023-05-12T12:34:31.694Z,138.19
2023-05-12T12:35:31.687Z,138.59
2023-05-12T12:36:31.702Z,138.13